Terminal Aerodrome Forecast
Issued by NWS

Home | Current Version | Previous Version | Text Only | Print | Product List | Glossary On
Versions: 1 2 3 4 5 6 7 8 9 10 11 12 13 14 15 16 17
000
FTUS44 KBMX 260709 AAA
TAFTOI
TAF AMD
KTOI 260709Z 2607/2706 22003KT 6SM BR SCT002
     FM260800 21003KT 3SM BR BKN003
      TEMPO 2609/2613 1SM BR OVC002
     FM261500 27012KT P6SM SCT250=

USA.gov is the U.S. government's official web portal to all federal, state and local government web resources and services.